createdAt,value
2018-01-29T00:01:50.142Z,8.00
2018-01-29T00:04:17.673Z,8.00
2018-01-29T00:06:45.220Z,8.00
2018-01-29T00:09:13.503Z,8.00
2018-01-29T00:11:41.101Z,8.00
2018-01-29T00:14:08.645Z,8.10
2018-01-29T00:16:36.170Z,8.10
2018-01-29T00:19:04.464Z,8.00
2018-01-29T00:21:32.005Z,8.00
2018-01-29T00:24:00.304Z,8.00
2018-01-29T00:26:27.823Z,8.00
2018-01-29T00:28:55.358Z,8.00
2018-01-29T00:31:22.900Z,8.00
2018-01-29T00:33:50.419Z,8.00
2018-01-29T00:36:18.720Z,8.00
2018-01-29T00:38:46.234Z,8.00
2018-01-29T00:41:14.519Z,8.00
2018-01-29T00:43:42.822Z,8.00
2018-01-29T00:46:10.353Z,8.00
2018-01-29T00:48:38.645Z,8.00
2018-01-29T00:51:06.184Z,8.00
2018-01-29T00:53:34.464Z,8.00
2018-01-29T00:56:02.752Z,8.00
2018-01-29T00:58:30.286Z,8.00
2018-01-29T01:00:59.310Z,8.00
2018-01-29T01:03:26.826Z,8.00
2018-01-29T01:05:55.145Z,8.00
2018-01-29T01:08:22.945Z,8.00
2018-01-29T01:10:50.473Z,8.00
2018-01-29T01:13:18.007Z,7.90
2018-01-29T01:15:46.288Z,7.90
2018-01-29T01:18:14.582Z,7.90
2018-01-29T01:20:42.129Z,7.90
2018-01-29T01:23:10.407Z,8.00
2018-01-29T01:25:38.699Z,7.90
2018-01-29T01:28:06.493Z,7.90
2018-01-29T01:30:34.012Z,7.90
2018-01-29T01:33:01.537Z,7.90
2018-01-29T01:35:29.070Z,7.90
2018-01-29T01:37:56.933Z,7.90
2018-01-29T01:40:24.447Z,8.00
2018-01-29T01:42:52.765Z,7.90
2018-01-29T01:45:20.280Z,7.90
2018-01-29T01:47:48.576Z,7.90
2018-01-29T01:50:16.110Z,7.90
2018-01-29T01:52:44.391Z,7.90
2018-01-29T01:55:12.685Z,8.00
2018-01-29T01:57:40.233Z,8.00
2018-01-29T02:00:07.899Z,8.00
2018-01-29T02:02:35.858Z,8.00
2018-01-29T02:05:04.251Z,8.00
2018-01-29T02:07:31.767Z,8.00
2018-01-29T02:09:59.298Z,8.00
2018-01-29T02:12:26.831Z,8.00
2018-01-29T02:14:54.356Z,8.00
2018-01-29T02:17:22.655Z,8.00
2018-01-29T02:19:50.237Z,8.00
2018-01-29T02:22:17.773Z,8.00
2018-01-29T02:24:45.305Z,8.00
2018-01-29T02:27:13.633Z,8.00
2018-01-29T02:29:41.147Z,7.90
2018-01-29T02:32:09.428Z,8.00
2018-01-29T02:34:37.724Z,8.00
2018-01-29T02:37:05.249Z,8.00
2018-01-29T02:39:33.549Z,8.00
2018-01-29T02:42:02.194Z,8.00
2018-01-29T02:44:30.346Z,8.00
2018-01-29T02:46:57.873Z,8.00
2018-01-29T02:49:25.422Z,7.90
2018-01-29T02:51:52.949Z,8.00
2018-01-29T02:54:20.485Z,8.00
2018-01-29T02:56:48.037Z,8.00
2018-01-29T02:59:15.565Z,7.90
2018-01-29T03:01:43.079Z,7.90
2018-01-29T03:04:10.619Z,7.90
2018-01-29T03:06:38.375Z,7.90
2018-01-29T03:09:05.893Z,7.90
2018-01-29T03:11:34.208Z,7.90
2018-01-29T03:14:01.724Z,7.90
2018-01-29T03:16:29.999Z,7.80
2018-01-29T03:18:58.308Z,7.80
2018-01-29T03:21:25.841Z,7.80
2018-01-29T03:23:53.364Z,7.80
2018-01-29T03:26:21.696Z,7.60
2018-01-29T03:28:49.225Z,7.50
2018-01-29T03:31:17.516Z,7.60
2018-01-29T03:33:45.070Z,7.60
2018-01-29T03:36:13.361Z,7.50
2018-01-29T03:38:40.888Z,7.50
2018-01-29T03:41:09.527Z,7.40
2018-01-29T03:43:37.053Z,7.40
2018-01-29T03:46:04.585Z,7.40
2018-01-29T03:48:32.898Z,7.50
2018-01-29T03:51:00.411Z,7.50
2018-01-29T03:53:27.936Z,7.50
2018-01-29T03:55:55.486Z,7.60
2018-01-29T03:58:23.007Z,7.60
2018-01-29T04:00:51.301Z,7.60
2018-01-29T04:03:18.835Z,7.60
2018-01-29T04:05:47.115Z,7.60
2018-01-29T04:08:15.395Z,7.70
2018-01-29T04:10:43.695Z,7.70
2018-01-29T04:13:11.263Z,7.70
2018-01-29T04:15:38.778Z,7.70
2018-01-29T04:18:07.089Z,7.70
2018-01-29T04:20:34.641Z,7.70
2018-01-29T04:23:02.151Z,7.70
2018-01-29T04:25:29.687Z,7.70
2018-01-29T04:27:57.233Z,7.70
2018-01-29T04:30:24.751Z,7.70
2018-01-29T04:32:53.060Z,7.70
2018-01-29T04:35:20.574Z,7.70
2018-01-29T04:37:48.873Z,7.80
2018-01-29T04:40:17.176Z,7.70
2018-01-29T04:42:44.961Z,7.70
2018-01-29T04:45:12.476Z,7.70
2018-01-29T04:47:40.025Z,7.70
2018-01-29T04:50:08.321Z,7.70
2018-01-29T04:52:35.849Z,7.70
2018-01-29T04:55:04.151Z,7.70
2018-01-29T04:57:31.663Z,7.70
2018-01-29T04:59:59.193Z,7.70
2018-01-29T05:02:26.727Z,7.70
2018-01-29T05:04:54.549Z,7.70
2018-01-29T05:07:22.068Z,7.70
2018-01-29T05:09:49.653Z,7.70
2018-01-29T05:12:17.171Z,7.70
2018-01-29T05:14:44.687Z,7.70
2018-01-29T05:17:12.223Z,7.60
2018-01-29T05:19:39.741Z,7.60
2018-01-29T05:22:07.258Z,7.70
2018-01-29T05:24:34.791Z,7.70
2018-01-29T05:27:02.314Z,7.70
2018-01-29T05:29:29.874Z,7.70
2018-01-29T05:31:57.671Z,7.70
2018-01-29T05:34:25.301Z,7.80
2018-01-29T05:36:54.637Z,7.80
2018-01-29T05:39:22.185Z,7.80
2018-01-29T05:41:49.709Z,7.80
2018-01-29T05:44:18.009Z,7.90
2018-01-29T05:46:45.547Z,7.80
2018-01-29T05:49:13.063Z,7.90
2018-01-29T05:51:40.597Z,7.90
2018-01-29T05:54:08.149Z,7.90
2018-01-29T05:56:35.929Z,7.90
2018-01-29T05:59:03.443Z,7.90
2018-01-29T06:01:32.067Z,8.00
2018-01-29T06:03:59.596Z,7.90
2018-01-29T06:06:27.133Z,7.90
2018-01-29T06:08:55.452Z,8.00
2018-01-29T06:11:22.967Z,8.00
2018-01-29T06:13:51.252Z,8.00
2018-01-29T06:16:19.569Z,7.90
2018-01-29T06:18:47.343Z,7.90
2018-01-29T06:21:14.877Z,7.90
2018-01-29T06:23:42.443Z,8.00
2018-01-29T06:26:09.969Z,8.00
2018-01-29T06:28:38.262Z,8.00
2018-01-29T06:31:06.057Z,7.90
2018-01-29T06:33:33.571Z,7.90
2018-01-29T06:36:01.087Z,7.90
2018-01-29T06:38:28.641Z,8.00
2018-01-29T06:40:56.159Z,8.00
2018-01-29T06:43:23.689Z,7.90
2018-01-29T06:45:52.007Z,7.90
2018-01-29T06:48:19.585Z,7.90
2018-01-29T06:50:47.099Z,8.00
2018-01-29T06:53:15.419Z,8.00
2018-01-29T06:55:42.949Z,7.90
2018-01-29T06:58:10.523Z,8.00
2018-01-29T07:00:38.070Z,8.00
2018-01-29T07:03:05.582Z,8.00
2018-01-29T07:05:33.109Z,8.00
2018-01-29T07:08:00.644Z,8.00
2018-01-29T07:10:28.161Z,8.00
2018-01-29T07:12:56.453Z,7.90
2018-01-29T07:15:24.763Z,7.90
2018-01-29T07:17:52.292Z,7.90
2018-01-29T07:20:20.589Z,8.00
2018-01-29T07:22:48.133Z,7.90
2018-01-29T07:25:16.410Z,7.90
2018-01-29T07:27:44.217Z,7.90
2018-01-29T07:30:11.750Z,7.90
2018-01-29T07:32:39.281Z,7.90
2018-01-29T07:35:07.585Z,7.90
2018-01-29T07:37:35.163Z,7.90
2018-01-29T07:40:02.679Z,7.90
2018-01-29T07:42:30.973Z,7.90
2018-01-29T07:44:59.121Z,7.90
2018-01-29T07:47:26.940Z,7.90
2018-01-29T07:49:54.473Z,7.90
2018-01-29T07:52:22.011Z,7.90
2018-01-29T07:54:50.295Z,8.00
2018-01-29T07:57:17.888Z,8.00
2018-01-29T07:59:46.731Z,8.00
2018-01-29T08:02:15.110Z,8.10
2018-01-29T08:04:43.404Z,8.10
2018-01-29T08:07:10.953Z,8.10
2018-01-29T08:09:39.231Z,8.10
2018-01-29T08:12:06.747Z,8.10
2018-01-29T08:14:34.300Z,8.10
2018-01-29T08:17:01.834Z,8.20
2018-01-29T08:19:29.367Z,8.20
2018-01-29T08:21:56.917Z,8.20
2018-01-29T08:24:25.205Z,8.30
2018-01-29T08:26:52.727Z,8.30
2018-01-29T08:29:20.279Z,8.30
2018-01-29T08:31:50.177Z,8.30
2018-01-29T08:34:17.722Z,8.30
2018-01-29T08:36:45.269Z,8.40
2018-01-29T08:39:12.861Z,8.40
2018-01-29T08:41:40.383Z,8.40
2018-01-29T08:44:07.955Z,8.50
2018-01-29T08:46:35.514Z,8.40
2018-01-29T08:49:03.167Z,8.40
2018-01-29T08:51:30.721Z,8.50
2018-01-29T08:53:58.242Z,8.50
2018-01-29T08:56:26.701Z,8.60
2018-01-29T08:58:54.248Z,8.60
2018-01-29T09:01:21.764Z,8.60
2018-01-29T09:03:49.293Z,8.70
2018-01-29T09:06:17.590Z,8.70
2018-01-29T09:08:45.891Z,8.80
2018-01-29T09:11:13.403Z,8.80
2018-01-29T09:13:41.723Z,8.80
2018-01-29T09:16:09.245Z,8.90
2018-01-29T09:18:37.548Z,8.90
2018-01-29T09:21:05.100Z,8.80
2018-01-29T09:23:33.375Z,8.80
2018-01-29T09:26:01.666Z,8.90
2018-01-29T09:28:29.202Z,8.90
2018-01-29T09:30:57.479Z,9.00
2018-01-29T09:33:25.755Z,9.10
2018-01-29T09:35:54.075Z,9.10
2018-01-29T09:38:21.637Z,9.10
2018-01-29T09:40:49.161Z,9.20
2018-01-29T09:43:16.713Z,9.20
2018-01-29T09:45:44.995Z,9.40
2018-01-29T09:48:12.795Z,9.40
2018-01-29T09:50:40.343Z,9.40
2018-01-29T09:53:07.865Z,9.40
2018-01-29T09:55:36.161Z,9.50
2018-01-29T09:58:03.711Z,9.50
2018-01-29T10:00:31.237Z,9.50
2018-01-29T10:02:58.971Z,9.60
2018-01-29T10:05:26.513Z,9.60
2018-01-29T10:07:54.291Z,9.70
2018-01-29T10:10:21.817Z,9.70
2018-01-29T10:12:49.395Z,9.70
2018-01-29T10:15:16.908Z,9.70
2018-01-29T10:17:44.425Z,9.80
2018-01-29T10:20:11.954Z,9.90
2018-01-29T10:22:39.484Z,9.80
2018-01-29T10:25:07.009Z,9.80
2018-01-29T10:27:34.558Z,9.80
2018-01-29T10:30:02.086Z,9.80
2018-01-29T10:32:29.604Z,9.80
2018-01-29T10:34:58.655Z,9.90
2018-01-29T10:37:26.205Z,9.90
2018-01-29T10:39:53.739Z,10.10
2018-01-29T10:42:22.097Z,10.40
2018-01-29T10:44:50.393Z,10.70
2018-01-29T10:47:18.693Z,11.10
2018-01-29T10:49:46.227Z,11.10
2018-01-29T10:52:14.758Z,11.60
2018-01-29T10:54:42.272Z,11.60
2018-01-29T10:57:10.571Z,11.40
2018-01-29T10:59:38.083Z,11.50
2018-01-29T11:02:06.382Z,11.30
2018-01-29T11:04:34.698Z,11.20
2018-01-29T11:07:02.230Z,11.20
2018-01-29T11:09:29.754Z,11.00
2018-01-29T11:11:58.810Z,11.00
2018-01-29T11:14:26.339Z,11.00
2018-01-29T11:16:53.857Z,11.00
2018-01-29T11:19:21.409Z,11.10
2018-01-29T11:21:48.945Z,11.10
2018-01-29T11:24:16.463Z,11.00
2018-01-29T11:26:44.780Z,10.90
2018-01-29T11:29:12.346Z,10.80
2018-01-29T11:31:39.873Z,10.80
2018-01-29T11:34:07.425Z,10.80
2018-01-29T11:36:34.957Z,10.60
2018-01-29T11:39:02.571Z,10.50
2018-01-29T11:41:30.107Z,10.50
2018-01-29T11:43:57.640Z,10.50
2018-01-29T11:46:25.937Z,10.60
2018-01-29T11:48:53.489Z,10.60
2018-01-29T11:51:21.781Z,10.80
2018-01-29T11:53:49.579Z,10.80
2018-01-29T11:56:17.110Z,10.80
2018-01-29T11:58:44.641Z,10.90
2018-01-29T12:01:13.231Z,11.10
2018-01-29T12:03:41.550Z,11.10
2018-01-29T12:06:09.129Z,11.10
2018-01-29T12:08:36.674Z,11.20
2018-01-29T12:11:04.209Z,11.20
2018-01-29T12:13:31.991Z,11.20
2018-01-29T12:15:59.522Z,11.20
2018-01-29T12:18:27.073Z,11.30
2018-01-29T12:20:54.612Z,11.30
2018-01-29T12:23:22.169Z,11.30
2018-01-29T12:25:50.522Z,11.10
2018-01-29T12:28:18.110Z,11.10
2018-01-29T12:30:46.460Z,11.00
2018-01-29T12:33:14.088Z,11.00
2018-01-29T12:35:41.631Z,10.90
2018-01-29T12:38:09.161Z,10.90
2018-01-29T12:40:37.488Z,10.90
2018-01-29T12:43:05.018Z,10.90
2018-01-29T12:45:32.557Z,10.80
2018-01-29T12:48:00.860Z,10.70
2018-01-29T12:50:28.389Z,10.70
2018-01-29T12:52:55.921Z,10.60
2018-01-29T12:55:23.463Z,10.60
2018-01-29T12:57:51.105Z,10.50
2018-01-29T13:00:18.619Z,10.50
2018-01-29T13:02:47.686Z,10.50
2018-01-29T13:05:15.238Z,10.50
2018-01-29T13:07:42.755Z,10.50
2018-01-29T13:10:11.074Z,10.40
2018-01-29T13:12:38.631Z,10.40
2018-01-29T13:15:06.167Z,10.60
2018-01-29T13:17:33.724Z,10.60
2018-01-29T13:20:01.297Z,10.60
2018-01-29T13:22:28.819Z,10.70
2018-01-29T13:24:57.119Z,10.80
2018-01-29T13:27:24.639Z,10.70
2018-01-29T13:29:52.169Z,10.70
2018-01-29T13:32:19.725Z,10.60
2018-01-29T13:34:47.252Z,10.50
2018-01-29T13:37:14.815Z,10.60
2018-01-29T13:39:42.380Z,10.60
2018-01-29T13:42:09.915Z,10.60
2018-01-29T13:44:38.257Z,10.40
2018-01-29T13:47:06.559Z,10.40
2018-01-29T13:49:34.846Z,10.50
2018-01-29T13:52:02.461Z,10.50
2018-01-29T13:54:29.997Z,10.60
2018-01-29T13:56:57.528Z,10.60
2018-01-29T13:59:25.107Z,10.60
2018-01-29T14:01:52.667Z,10.70
2018-01-29T14:04:20.181Z,10.70
2018-01-29T14:06:48.462Z,10.60
2018-01-29T14:09:16.781Z,10.60
2018-01-29T14:11:44.296Z,10.50
2018-01-29T14:14:12.589Z,10.50
2018-01-29T14:16:40.392Z,10.40
2018-01-29T14:19:07.928Z,10.40
2018-01-29T14:21:35.479Z,10.40
2018-01-29T14:24:03.217Z,10.30
2018-01-29T14:26:31.521Z,10.30
2018-01-29T14:28:59.318Z,10.30
2018-01-29T14:31:26.881Z,10.30
2018-01-29T14:33:54.394Z,10.30
2018-01-29T14:36:21.911Z,10.30
2018-01-29T14:38:49.493Z,10.30
2018-01-29T14:41:17.001Z,10.20
2018-01-29T14:43:44.532Z,10.30
2018-01-29T14:46:12.063Z,10.30
2018-01-29T14:48:40.398Z,10.20
2018-01-29T14:51:08.041Z,10.20
2018-01-29T14:53:35.604Z,10.10
2018-01-29T14:56:03.127Z,10.10
2018-01-29T14:58:31.406Z,10.00
2018-01-29T15:00:58.962Z,10.00
2018-01-29T15:03:27.258Z,9.90
2018-01-29T15:05:54.775Z,9.80
2018-01-29T15:08:23.813Z,9.70
2018-01-29T15:10:51.326Z,9.70
2018-01-29T15:13:18.837Z,9.70
2018-01-29T15:15:46.366Z,9.70
2018-01-29T15:18:14.658Z,9.50
2018-01-29T15:20:42.186Z,9.50
2018-01-29T15:23:09.809Z,9.40
2018-01-29T15:25:37.319Z,9.30
2018-01-29T15:28:05.614Z,9.20
2018-01-29T15:30:33.147Z,9.20
2018-01-29T15:33:01.438Z,9.20
2018-01-29T15:35:28.959Z,9.20
2018-01-29T15:37:56.508Z,9.20
2018-01-29T15:40:24.038Z,9.20
2018-01-29T15:42:51.573Z,9.20
2018-01-29T15:45:19.110Z,9.20
2018-01-29T15:47:46.637Z,9.20
2018-01-29T15:50:14.169Z,9.20
2018-01-29T15:52:41.717Z,9.20
2018-01-29T15:55:09.249Z,9.20
2018-01-29T15:57:37.541Z,9.20
2018-01-29T16:00:05.840Z,9.20
2018-01-29T16:02:33.409Z,9.20
2018-01-29T16:05:00.923Z,9.20
2018-01-29T16:07:29.237Z,9.20
2018-01-29T16:09:56.769Z,9.20
2018-01-29T16:12:24.296Z,9.20
2018-01-29T16:14:52.599Z,9.10
2018-01-29T16:17:20.879Z,9.10
2018-01-29T16:19:49.191Z,9.10
2018-01-29T16:22:16.760Z,9.10
2018-01-29T16:24:44.289Z,9.10
2018-01-29T16:27:11.808Z,9.10
2018-01-29T16:29:39.349Z,9.10
2018-01-29T16:32:06.997Z,9.10
2018-01-29T16:34:34.639Z,9.10
2018-01-29T16:37:02.198Z,9.10
2018-01-29T16:39:29.773Z,9.10
2018-01-29T16:41:57.287Z,9.20
2018-01-29T16:44:25.613Z,9.10
2018-01-29T16:46:53.315Z,9.10
2018-01-29T16:49:21.328Z,9.10
2018-01-29T16:51:49.425Z,9.10
2018-01-29T16:54:17.159Z,9.10
2018-01-29T16:56:45.028Z,9.20
2018-01-29T16:59:12.793Z,9.20
2018-01-29T17:01:40.656Z,9.20
2018-01-29T17:04:08.213Z,9.20
2018-01-29T17:06:35.746Z,9.20
2018-01-29T17:09:04.029Z,9.20
2018-01-29T17:11:31.550Z,9.20
2018-01-29T17:13:59.343Z,9.20
2018-01-29T17:16:27.628Z,9.20
2018-01-29T17:18:55.192Z,9.20
2018-01-29T17:21:22.735Z,9.20
2018-01-29T17:23:50.269Z,9.20
2018-01-29T17:26:18.561Z,9.20
2018-01-29T17:28:46.983Z,9.20
2018-01-29T17:31:14.503Z,9.20
2018-01-29T17:33:42.811Z,9.20
2018-01-29T17:36:10.357Z,9.10
2018-01-29T17:38:37.871Z,9.20
2018-01-29T17:41:05.442Z,9.20
2018-01-29T17:43:33.746Z,9.20
2018-01-29T17:46:01.259Z,9.10
2018-01-29T17:48:28.771Z,9.10
2018-01-29T17:50:56.330Z,9.10
2018-01-29T17:53:23.858Z,9.20
2018-01-29T17:55:52.151Z,9.10
2018-01-29T17:58:19.693Z,9.10
2018-01-29T18:00:48.450Z,9.10
2018-01-29T18:03:16.005Z,9.10
2018-01-29T18:05:43.557Z,9.20
2018-01-29T18:08:11.063Z,9.20
2018-01-29T18:10:39.343Z,9.20
2018-01-29T18:13:07.654Z,9.20
2018-01-29T18:15:35.163Z,9.20
2018-01-29T18:18:03.443Z,9.20
2018-01-29T18:20:32.284Z,9.20
2018-01-29T18:23:00.973Z,9.20
2018-01-29T18:25:28.483Z,9.20
2018-01-29T18:27:56.801Z,9.20
2018-01-29T18:30:24.333Z,9.20
2018-01-29T18:32:51.847Z,9.20
2018-01-29T18:35:19.380Z,9.20
2018-01-29T18:37:47.136Z,9.20
2018-01-29T18:40:14.699Z,9.30
2018-01-29T18:42:42.239Z,9.20
2018-01-29T18:45:09.753Z,9.30
2018-01-29T18:47:37.271Z,9.30
2018-01-29T18:50:04.807Z,9.30
2018-01-29T18:52:32.320Z,9.30
2018-01-29T18:54:59.845Z,9.30
2018-01-29T18:57:27.389Z,9.30
2018-01-29T18:59:54.903Z,9.30
2018-01-29T19:02:23.923Z,9.20
2018-01-29T19:04:52.237Z,9.30
2018-01-29T19:07:19.820Z,9.30
2018-01-29T19:09:47.375Z,9.30
2018-01-29T19:12:14.968Z,9.30
2018-01-29T19:14:42.472Z,9.30
2018-01-29T19:17:10.684Z,9.30
2018-01-29T19:19:39.728Z,9.30
2018-01-29T19:22:07.253Z,9.30
2018-01-29T19:24:35.541Z,9.30
2018-01-29T19:27:03.085Z,9.30
2018-01-29T19:29:31.380Z,9.20
2018-01-29T19:31:59.463Z,9.20
2018-01-29T19:34:27.009Z,9.20
2018-01-29T19:36:54.523Z,9.20
2018-01-29T19:39:22.051Z,9.20
2018-01-29T19:41:49.625Z,9.20
2018-01-29T19:44:17.168Z,9.20
2018-01-29T19:46:44.704Z,9.20
2018-01-29T19:49:12.260Z,9.20
2018-01-29T19:51:39.790Z,9.30
2018-01-29T19:54:08.085Z,9.20
2018-01-29T19:56:36.393Z,9.20
2018-01-29T19:59:03.965Z,9.20
2018-01-29T20:01:31.726Z,9.20
2018-01-29T20:03:59.363Z,9.20
2018-01-29T20:06:27.165Z,9.20
2018-01-29T20:08:54.793Z,9.20
2018-01-29T20:11:22.364Z,9.20
2018-01-29T20:13:49.907Z,9.20
2018-01-29T20:16:17.419Z,9.20
2018-01-29T20:18:45.145Z,9.10
2018-01-29T20:21:13.681Z,9.00
2018-01-29T20:23:41.279Z,8.90
2018-01-29T20:26:08.825Z,8.90
2018-01-29T20:28:36.339Z,8.80
2018-01-29T20:31:04.229Z,8.80
2018-01-29T20:33:33.166Z,8.90
2018-01-29T20:36:00.981Z,8.80
2018-01-29T20:38:28.467Z,8.80
2018-01-29T20:40:56.013Z,8.90
2018-01-29T20:43:24.305Z,8.90
2018-01-29T20:45:51.828Z,8.90
2018-01-29T20:48:19.359Z,9.00
2018-01-29T20:50:46.878Z,8.90
2018-01-29T20:53:14.419Z,8.90
2018-01-29T20:55:42.744Z,8.80
2018-01-29T20:58:10.255Z,8.80
2018-01-29T21:00:38.539Z,8.80
2018-01-29T21:03:06.086Z,8.80
2018-01-29T21:05:34.369Z,8.80
2018-01-29T21:08:01.883Z,8.80
2018-01-29T21:10:29.434Z,8.80
2018-01-29T21:12:56.948Z,8.80
2018-01-29T21:15:24.530Z,8.70
2018-01-29T21:17:52.087Z,8.70
2018-01-29T21:20:19.603Z,8.80
2018-01-29T21:22:47.897Z,8.80
2018-01-29T21:25:16.212Z,8.80
2018-01-29T21:27:43.737Z,8.80
2018-01-29T21:30:11.264Z,8.80
2018-01-29T21:32:38.799Z,8.80
2018-01-29T21:35:06.316Z,8.80
2018-01-29T21:37:33.835Z,8.80
2018-01-29T21:40:01.673Z,8.80
2018-01-29T21:42:29.205Z,8.90
2018-01-29T21:44:56.724Z,8.90
2018-01-29T21:47:24.278Z,8.90
2018-01-29T21:49:51.791Z,8.90
2018-01-29T21:52:19.317Z,8.90
2018-01-29T21:54:47.615Z,8.90
2018-01-29T21:57:15.143Z,8.90
2018-01-29T21:59:43.433Z,9.00
2018-01-29T22:02:11.741Z,9.00
2018-01-29T22:04:39.273Z,9.00
2018-01-29T22:07:06.787Z,9.00
2018-01-29T22:09:34.413Z,9.00
2018-01-29T22:12:01.935Z,9.10
2018-01-29T22:14:30.215Z,9.10
2018-01-29T22:16:59.003Z,9.10
2018-01-29T22:19:26.613Z,9.10
2018-01-29T22:21:54.126Z,9.10
2018-01-29T22:24:21.659Z,9.10
2018-01-29T22:26:50.695Z,9.10
2018-01-29T22:29:18.214Z,9.10
2018-01-29T22:31:45.761Z,9.20
2018-01-29T22:34:13.287Z,9.20
2018-01-29T22:36:40.799Z,9.20
2018-01-29T22:39:09.129Z,9.20
2018-01-29T22:41:36.642Z,9.10
2018-01-29T22:44:04.987Z,9.20
2018-01-29T22:46:32.495Z,9.10
2018-01-29T22:49:00.008Z,9.10
2018-01-29T22:51:27.541Z,9.10
2018-01-29T22:53:55.249Z,9.10
2018-01-29T22:56:22.760Z,9.10
2018-01-29T22:58:50.290Z,9.00
2018-01-29T23:01:17.823Z,9.00
2018-01-29T23:03:46.103Z,9.00
2018-01-29T23:06:14.387Z,9.00
2018-01-29T23:08:43.016Z,9.00
2018-01-29T23:11:10.541Z,9.00
2018-01-29T23:13:38.063Z,9.00
2018-01-29T23:16:06.385Z,9.00
2018-01-29T23:18:33.965Z,9.00
2018-01-29T23:21:01.489Z,9.00
2018-01-29T23:23:29.037Z,9.00
2018-01-29T23:25:57.329Z,9.00
2018-01-29T23:28:25.123Z,9.00
2018-01-29T23:30:52.669Z,8.90
2018-01-29T23:33:20.197Z,8.90
2018-01-29T23:35:48.489Z,8.80
2018-01-29T23:38:16.034Z,8.80
2018-01-29T23:40:43.839Z,8.80
2018-01-29T23:43:11.369Z,8.70
2018-01-29T23:45:38.921Z,8.60
2018-01-29T23:48:06.435Z,8.50
2018-01-29T23:50:33.965Z,8.50
2018-01-29T23:53:01.510Z,8.50
2018-01-29T23:55:29.033Z,8.40
2018-01-29T23:57:57.319Z,8.40
